createdAt,value
2024-05-09T00:00:41.804Z,39.7
2024-05-09T00:01:44.578Z,39.7
2024-05-09T00:02:46.901Z,39.7
2024-05-09T00:03:48.960Z,39.7
2024-05-09T00:04:51.489Z,39.7
2024-05-09T00:05:53.910Z,39.7
2024-05-09T00:06:55.921Z,39.7
2024-05-09T00:07:57.780Z,39.7
2024-05-09T00:08:59.803Z,39.7
2024-05-09T00:10:01.557Z,39.7
2024-05-09T00:11:05.839Z,39.7
2024-05-09T00:12:08.663Z,39.7
2024-05-09T00:13:11.850Z,39.7
2024-05-09T00:14:13.833Z,39.8
2024-05-09T00:15:15.777Z,39.7
2024-05-09T00:16:17.554Z,39.7
2024-05-09T00:17:19.617Z,39.8
2024-05-09T00:18:22.308Z,39.7
2024-05-09T00:19:25.277Z,39.7
2024-05-09T00:20:38.880Z,39.7
2024-05-09T00:21:43.346Z,39.7
2024-05-09T00:22:45.196Z,39.6
2024-05-09T00:23:47.263Z,39.6
2024-05-09T00:24:49.025Z,39.6
2024-05-09T00:25:50.996Z,39.6
2024-05-09T00:26:52.891Z,39.6
2024-05-09T00:27:54.622Z,39.6
2024-05-09T00:28:56.496Z,39.6
2024-05-09T00:29:58.555Z,39.6
2024-05-09T00:31:00.257Z,39.6
2024-05-09T00:32:02.357Z,39.6
2024-05-09T00:33:07.254Z,39.6
2024-05-09T00:34:13.603Z,39.6
2024-05-09T00:35:15.975Z,39.6
2024-05-09T00:36:18.035Z,39.6
2024-05-09T00:37:19.760Z,39.6
2024-05-09T00:38:21.660Z,39.6
2024-05-09T00:39:23.468Z,39.6
2024-05-09T00:40:39.647Z,39.6
2024-05-09T00:41:45.680Z,39.5
2024-05-09T00:42:47.666Z,39.5
2024-05-09T00:43:49.463Z,39.5
2024-05-09T00:44:51.581Z,39.5
2024-05-09T00:45:53.236Z,39.5
2024-05-09T00:46:55.176Z,39.5
2024-05-09T00:47:57.668Z,39.5
2024-05-09T00:49:00.348Z,39.5
2024-05-09T00:50:07.502Z,39.5
2024-05-09T00:51:27.354Z,39.5
2024-05-09T00:52:29.063Z,39.4
2024-05-09T00:53:31.207Z,39.4
2024-05-09T00:54:33.416Z,39.4
2024-05-09T00:55:35.380Z,39.4
2024-05-09T00:56:37.564Z,39.4
2024-05-09T00:57:39.703Z,39.4
2024-05-09T00:58:41.471Z,39.5
2024-05-09T00:59:43.223Z,39.5
2024-05-09T01:00:45.430Z,39.5
2024-05-09T01:01:47.996Z,39.5
2024-05-09T01:02:50.561Z,39.5
2024-05-09T01:03:53.322Z,39.5
2024-05-09T01:04:56.286Z,39.5
2024-05-09T01:05:58.809Z,39.5
2024-05-09T01:07:00.727Z,39.5
2024-05-09T01:08:03.140Z,39.5
2024-05-09T01:09:05.468Z,39.5
2024-05-09T01:10:21.030Z,39.6
2024-05-09T01:11:38.056Z,39.5
2024-05-09T01:12:40.427Z,39.5
2024-05-09T01:13:42.501Z,39.4
2024-05-09T01:14:44.382Z,39.4
2024-05-09T01:15:46.140Z,39.5
2024-05-09T01:16:48.018Z,39.5
2024-05-09T01:17:50.413Z,39.5
2024-05-09T01:18:53.517Z,39.5
2024-05-09T01:19:55.786Z,39.5
2024-05-09T01:20:58.088Z,39.5
2024-05-09T01:22:00.164Z,39.5
2024-05-09T01:23:02.127Z,39.5
2024-05-09T01:24:04.351Z,39.5
2024-05-09T01:25:06.185Z,39.5
2024-05-09T01:26:07.937Z,39.5
2024-05-09T01:27:09.830Z,39.6
2024-05-09T01:28:11.533Z,39.5
2024-05-09T01:29:13.483Z,39.5
2024-05-09T01:30:27.758Z,39.5
2024-05-09T01:31:39.803Z,39.5
2024-05-09T01:32:42.163Z,39.5
2024-05-09T01:33:44.965Z,39.5
2024-05-09T01:34:47.695Z,39.5
2024-05-09T01:35:54.497Z,39.5
2024-05-09T01:36:56.187Z,39.5
2024-05-09T01:37:57.964Z,39.5
2024-05-09T01:39:00.108Z,39.5
2024-05-09T01:40:01.820Z,39.5
2024-05-09T01:41:03.758Z,39.5
2024-05-09T01:42:05.682Z,39.5
2024-05-09T01:43:08.417Z,39.5
2024-05-09T01:44:13.973Z,39.5
2024-05-09T01:45:15.988Z,39.5
2024-05-09T01:46:17.743Z,39.5
2024-05-09T01:47:19.800Z,39.6
2024-05-09T01:48:22.574Z,39.6
2024-05-09T01:49:25.390Z,39.5
2024-05-09T01:50:40.647Z,39.5
2024-05-09T01:51:45.591Z,39.5
2024-05-09T01:52:47.510Z,39.5
2024-05-09T01:53:49.539Z,39.5
2024-05-09T01:54:51.357Z,39.5
2024-05-09T01:55:53.134Z,39.5
2024-05-09T01:56:55.012Z,39.5
2024-05-09T01:57:56.760Z,39.6
2024-05-09T01:58:58.694Z,39.6
2024-05-09T02:00:00.662Z,39.6
2024-05-09T02:01:02.819Z,39.6
2024-05-09T02:02:05.244Z,39.6
2024-05-09T02:03:08.429Z,39.6
2024-05-09T02:04:12.956Z,39.6
2024-05-09T02:05:16.091Z,39.6
2024-05-09T02:06:18.386Z,39.6
2024-05-09T02:07:20.284Z,39.6
2024-05-09T02:08:22.691Z,39.6
2024-05-09T02:09:24.720Z,39.6
2024-05-09T02:10:33.427Z,39.6
2024-05-09T02:11:35.870Z,39.7
2024-05-09T02:12:38.151Z,39.7
2024-05-09T02:13:39.871Z,39.7
2024-05-09T02:14:41.645Z,39.7
2024-05-09T02:15:43.430Z,39.7
2024-05-09T02:16:45.391Z,39.8
2024-05-09T02:17:47.919Z,39.9
2024-05-09T02:18:51.398Z,39.8
2024-05-09T02:19:54.085Z,39.8
2024-05-09T02:20:56.063Z,39.8
2024-05-09T02:21:58.121Z,39.8
2024-05-09T02:23:00.074Z,39.9
2024-05-09T02:24:02.190Z,39.8
2024-05-09T02:25:03.901Z,39.9
2024-05-09T02:26:05.674Z,39.9
2024-05-09T02:27:07.615Z,39.9
2024-05-09T02:28:09.363Z,39.9
2024-05-09T02:29:11.333Z,40
2024-05-09T02:30:29.419Z,40
2024-05-09T02:31:44.465Z,39.9
2024-05-09T02:32:47.374Z,39.9
2024-05-09T02:33:50.524Z,39.9
2024-05-09T02:34:53.379Z,39.9
2024-05-09T02:35:55.292Z,39.9
2024-05-09T02:36:57.009Z,40
2024-05-09T02:37:58.969Z,40
2024-05-09T02:39:01.405Z,40
2024-05-09T02:40:04.484Z,40
2024-05-09T02:41:16.277Z,40
2024-05-09T02:42:18.406Z,40
2024-05-09T02:43:20.135Z,40
2024-05-09T02:44:21.932Z,40
2024-05-09T02:45:24.132Z,40
2024-05-09T02:46:25.848Z,40
2024-05-09T02:47:27.986Z,40
2024-05-09T02:48:30.521Z,40.1
2024-05-09T02:49:33.147Z,40.1
2024-05-09T02:50:40.282Z,40.1
2024-05-09T02:51:43.629Z,40.1
2024-05-09T02:52:45.518Z,40.1
2024-05-09T02:53:47.489Z,40.1
2024-05-09T02:54:49.404Z,40.2
2024-05-09T02:55:51.334Z,40.2
2024-05-09T02:56:53.163Z,40.2
2024-05-09T02:57:54.853Z,40.2
2024-05-09T02:58:56.783Z,40.2
2024-05-09T02:59:58.854Z,40.2
2024-05-09T03:01:00.720Z,40.2
2024-05-09T03:02:03.128Z,40.3
2024-05-09T03:03:05.924Z,40.3
2024-05-09T03:04:09.723Z,40.3
2024-05-09T03:05:12.160Z,40.3
2024-05-09T03:06:14.175Z,40.2
2024-05-09T03:07:19.044Z,40.3
2024-05-09T03:08:22.323Z,40.2
2024-05-09T03:09:24.394Z,40.2
2024-05-09T03:10:35.065Z,40.1
2024-05-09T03:11:41.891Z,40.1
2024-05-09T03:12:44.327Z,40.1
2024-05-09T03:13:46.414Z,40.1
2024-05-09T03:14:48.263Z,40.2
2024-05-09T03:15:49.977Z,40.2
2024-05-09T03:16:51.857Z,40.2
2024-05-09T03:17:54.157Z,40.2
2024-05-09T03:18:56.776Z,40.1
2024-05-09T03:19:59.164Z,40.2
2024-05-09T03:21:01.385Z,40.1
2024-05-09T03:22:03.492Z,40.1
2024-05-09T03:23:06.599Z,40.1
2024-05-09T03:24:08.628Z,40.1
2024-05-09T03:25:10.350Z,40.1
2024-05-09T03:26:12.497Z,40
2024-05-09T03:27:14.696Z,40
2024-05-09T03:28:16.419Z,40
2024-05-09T03:29:18.350Z,40
2024-05-09T03:30:38.338Z,40
2024-05-09T03:31:45.394Z,40
2024-05-09T03:32:48.030Z,39.9
2024-05-09T03:33:51.267Z,39.9
2024-05-09T03:34:53.796Z,39.8
2024-05-09T03:35:55.850Z,39.8
2024-05-09T03:36:57.579Z,39.9
2024-05-09T03:37:59.399Z,39.9
2024-05-09T03:39:01.425Z,39.9
2024-05-09T03:40:04.208Z,39.9
2024-05-09T03:41:21.903Z,40
2024-05-09T03:42:24.121Z,40
2024-05-09T03:43:25.835Z,40
2024-05-09T03:44:27.824Z,40.1
2024-05-09T03:45:30.095Z,40.1
2024-05-09T03:46:31.777Z,40.1
2024-05-09T03:47:33.824Z,40.1
2024-05-09T03:48:36.627Z,40
2024-05-09T03:49:39.008Z,40
2024-05-09T03:50:41.284Z,40.1
2024-05-09T03:51:43.792Z,40.1
2024-05-09T03:52:45.741Z,40.1
2024-05-09T03:53:47.889Z,40.1
2024-05-09T03:54:49.920Z,40.1
2024-05-09T03:55:51.701Z,40.1
2024-05-09T03:56:53.924Z,40.1
2024-05-09T03:57:55.641Z,40.2
2024-05-09T03:58:57.426Z,40.3
2024-05-09T03:59:59.225Z,40.3
2024-05-09T04:01:03.748Z,40.4
2024-05-09T04:02:05.988Z,40.4
2024-05-09T04:03:12.822Z,40.6
2024-05-09T04:04:16.146Z,40.7
2024-05-09T04:05:18.277Z,40.7
2024-05-09T04:06:20.057Z,40.8
2024-05-09T04:07:21.871Z,41
2024-05-09T04:08:23.669Z,40.9
2024-05-09T04:09:25.738Z,40.8
2024-05-09T04:10:34.554Z,40.8
2024-05-09T04:11:37.900Z,40.9
2024-05-09T04:12:40.116Z,41
2024-05-09T04:13:41.864Z,41
2024-05-09T04:14:43.562Z,41.1
2024-05-09T04:15:45.287Z,41.1
2024-05-09T04:16:47.118Z,41.1
2024-05-09T04:17:49.982Z,41
2024-05-09T04:18:52.786Z,41
2024-05-09T04:19:55.228Z,40.9
2024-05-09T04:20:57.373Z,40.9
2024-05-09T04:21:59.193Z,40.9
2024-05-09T04:23:01.147Z,40.8
2024-05-09T04:24:03.205Z,40.9
2024-05-09T04:25:04.999Z,40.9
2024-05-09T04:26:06.807Z,40.9
2024-05-09T04:27:08.875Z,41
2024-05-09T04:28:10.728Z,41
2024-05-09T04:29:12.717Z,41
2024-05-09T04:30:31.111Z,41.1
2024-05-09T04:31:44.409Z,41.1
2024-05-09T04:32:46.835Z,41.1
2024-05-09T04:33:49.833Z,41.1
2024-05-09T04:34:52.358Z,41.2
2024-05-09T04:35:54.151Z,41.3
2024-05-09T04:36:55.885Z,41.3
2024-05-09T04:37:57.606Z,41.3
2024-05-09T04:38:59.416Z,41.4
2024-05-09T04:40:01.132Z,41.4
2024-05-09T04:41:03.124Z,41.4
2024-05-09T04:42:05.148Z,41.6
2024-05-09T04:43:07.764Z,41.6
2024-05-09T04:44:09.680Z,41.6
2024-05-09T04:45:11.616Z,41.6
2024-05-09T04:46:13.321Z,41.7
2024-05-09T04:47:15.427Z,41.7
2024-05-09T04:48:18.245Z,41.6
2024-05-09T04:49:21.042Z,41.6
2024-05-09T04:50:37.110Z,41.6
2024-05-09T04:51:42.012Z,41.6
2024-05-09T04:52:43.764Z,41.6
2024-05-09T04:53:45.964Z,41.5
2024-05-09T04:54:48.000Z,41.5
2024-05-09T04:55:50.082Z,41.4
2024-05-09T04:56:52.140Z,41.5
2024-05-09T04:57:53.897Z,41.6
2024-05-09T04:58:55.803Z,41.6
2024-05-09T04:59:57.903Z,41.6
2024-05-09T05:00:59.792Z,41.6
2024-05-09T05:02:02.004Z,41.7
2024-05-09T05:03:04.747Z,41.7
2024-05-09T05:04:08.875Z,41.6
2024-05-09T05:05:12.472Z,41.5
2024-05-09T05:06:14.778Z,41.4
2024-05-09T05:07:16.527Z,41.4
2024-05-09T05:08:19.844Z,41.4
2024-05-09T05:09:22.176Z,41.4
2024-05-09T05:10:36.140Z,41.3
2024-05-09T05:11:38.938Z,41.3
2024-05-09T05:12:41.109Z,41.3
2024-05-09T05:13:42.870Z,41.3
2024-05-09T05:14:44.601Z,41.3
2024-05-09T05:15:46.328Z,41.4
2024-05-09T05:16:48.428Z,41.3
2024-05-09T05:17:50.893Z,41.3
2024-05-09T05:18:53.771Z,41.2
2024-05-09T05:19:56.215Z,41.3
2024-05-09T05:20:58.984Z,41.3
2024-05-09T05:22:01.340Z,41.2
2024-05-09T05:23:03.254Z,41.2
2024-05-09T05:24:05.380Z,41.2
2024-05-09T05:25:07.133Z,41.1
2024-05-09T05:26:09.069Z,41.2
2024-05-09T05:27:11.135Z,41.2
2024-05-09T05:28:12.872Z,41.1
2024-05-09T05:29:20.250Z,41
2024-05-09T05:30:34.166Z,41
2024-05-09T05:31:37.313Z,40.9
2024-05-09T05:32:39.589Z,40.8
2024-05-09T05:33:42.180Z,40.8
2024-05-09T05:34:44.760Z,40.8
2024-05-09T05:35:46.630Z,40.8
2024-05-09T05:36:48.399Z,40.9
2024-05-09T05:37:50.218Z,40.9
2024-05-09T05:38:52.381Z,41
2024-05-09T05:39:54.322Z,40.9
2024-05-09T05:40:56.568Z,40.9
2024-05-09T05:41:58.959Z,40.8
2024-05-09T05:43:00.705Z,40.7
2024-05-09T05:44:02.474Z,40.8
2024-05-09T05:45:09.287Z,40.8
2024-05-09T05:46:11.584Z,40.7
2024-05-09T05:47:13.694Z,40.8
2024-05-09T05:48:17.275Z,40.8
2024-05-09T05:49:21.157Z,40.8
2024-05-09T05:50:36.241Z,40.7
2024-05-09T05:51:40.873Z,40.7
2024-05-09T05:52:42.581Z,40.6
2024-05-09T05:53:44.422Z,40.6
2024-05-09T05:54:46.509Z,40.6
2024-05-09T05:55:48.541Z,40.6
2024-05-09T05:56:50.452Z,40.6
2024-05-09T05:57:52.228Z,40.6
2024-05-09T05:58:54.426Z,40.6
2024-05-09T05:59:56.383Z,40.6
2024-05-09T06:00:58.198Z,40.6
2024-05-09T06:02:00.361Z,40.7
2024-05-09T06:03:02.670Z,40.5
2024-05-09T06:04:05.323Z,40.6
2024-05-09T06:05:07.846Z,40.6
2024-05-09T06:06:10.187Z,40.5
2024-05-09T06:07:12.135Z,40.5
2024-05-09T06:08:14.654Z,40.5
2024-05-09T06:09:16.853Z,40.5
2024-05-09T06:10:30.001Z,40.7
2024-05-09T06:11:43.692Z,40.7
2024-05-09T06:12:45.935Z,40.6
2024-05-09T06:13:47.818Z,40.7
2024-05-09T06:14:49.817Z,40.7
2024-05-09T06:15:51.570Z,40.8
2024-05-09T06:16:58.187Z,40.7
2024-05-09T06:18:01.122Z,40.6
2024-05-09T06:19:04.546Z,40.6
2024-05-09T06:20:20.196Z,40.4
2024-05-09T06:21:39.705Z,40.4
2024-05-09T06:22:41.438Z,40.4
2024-05-09T06:23:43.252Z,40.4
2024-05-09T06:24:45.366Z,40.5
2024-05-09T06:25:47.276Z,40.6
2024-05-09T06:26:49.412Z,40.6
2024-05-09T06:27:51.115Z,40.6
2024-05-09T06:28:52.977Z,40.6
2024-05-09T06:29:55.190Z,40.7
2024-05-09T06:30:56.983Z,40.7
2024-05-09T06:32:00.737Z,40.6
2024-05-09T06:33:03.853Z,40.6
2024-05-09T06:34:07.362Z,40.5
2024-05-09T06:35:09.800Z,40.5
2024-05-09T06:36:11.902Z,40.5
2024-05-09T06:37:13.633Z,40.5
2024-05-09T06:38:15.551Z,40.5
2024-05-09T06:39:17.646Z,40.5
2024-05-09T06:40:33.476Z,40.5
2024-05-09T06:41:44.910Z,40.5
2024-05-09T06:42:46.835Z,40.5
2024-05-09T06:43:48.729Z,40.5
2024-05-09T06:44:50.687Z,40.5
2024-05-09T06:45:52.427Z,40.5
2024-05-09T06:46:59.680Z,40.5
2024-05-09T06:48:02.685Z,40.4
2024-05-09T06:49:05.800Z,40.5
2024-05-09T06:50:23.200Z,40.4
2024-05-09T06:51:39.460Z,40.4
2024-05-09T06:52:41.216Z,40.3
2024-05-09T06:53:43.144Z,40.3
2024-05-09T06:54:45.177Z,40.4
2024-05-09T06:55:47.263Z,40.4
2024-05-09T06:56:49.313Z,40.3
2024-05-09T06:57:51.034Z,40.4
2024-05-09T06:58:52.923Z,40.3
2024-05-09T06:59:55.132Z,40.4
2024-05-09T07:00:56.944Z,40.4
2024-05-09T07:01:58.850Z,40.4
2024-05-09T07:03:05.644Z,40.5
2024-05-09T07:04:08.792Z,40.5
2024-05-09T07:05:11.589Z,40.5
2024-05-09T07:06:13.968Z,40.6
2024-05-09T07:07:15.983Z,40.6
2024-05-09T07:08:18.192Z,40.6
2024-05-09T07:09:21.065Z,40.5
2024-05-09T07:10:34.532Z,40.6
2024-05-09T07:11:39.312Z,40.7
2024-05-09T07:12:41.480Z,40.7
2024-05-09T07:13:43.266Z,40.8
2024-05-09T07:14:45.202Z,40.9
2024-05-09T07:15:47.143Z,41.1
2024-05-09T07:16:49.126Z,41.2
2024-05-09T07:17:51.690Z,41.4
2024-05-09T07:18:54.816Z,41.5
2024-05-09T07:19:58.035Z,41.6
2024-05-09T07:21:00.116Z,41.6
2024-05-09T07:22:02.088Z,41.7
2024-05-09T07:23:04.062Z,41.7
2024-05-09T07:24:06.268Z,41.9
2024-05-09T07:25:08.096Z,42
2024-05-09T07:26:10.073Z,42.1
2024-05-09T07:27:11.912Z,42.2
2024-05-09T07:28:13.891Z,42.2
2024-05-09T07:29:15.794Z,42.1
2024-05-09T07:30:30.673Z,41.9
2024-05-09T07:31:36.965Z,41.7
2024-05-09T07:32:39.200Z,41.6
2024-05-09T07:33:41.994Z,41.6
2024-05-09T07:34:44.146Z,41.6
2024-05-09T07:35:46.164Z,41.6
2024-05-09T07:36:48.359Z,41.6
2024-05-09T07:37:50.120Z,41.6
2024-05-09T07:38:52.074Z,41.6
2024-05-09T07:39:54.195Z,41.7
2024-05-09T07:40:55.971Z,41.7
2024-05-09T07:41:57.803Z,41.8
2024-05-09T07:42:59.544Z,41.8
2024-05-09T07:44:01.540Z,41.9
2024-05-09T07:45:40.514Z,41.9
2024-05-09T07:53:41.127Z,40.7
2024-05-09T07:54:56.959Z,40.6
2024-05-09T07:55:59.641Z,40.6
2024-05-09T07:57:02.492Z,40.6
2024-05-09T07:58:05.116Z,40.7
2024-05-09T07:59:07.291Z,40.7
2024-05-09T08:00:17.627Z,40.8
2024-05-09T08:01:34.092Z,40.7
2024-05-09T08:02:36.576Z,40.6
2024-05-09T08:03:39.165Z,40.8
2024-05-09T08:04:41.941Z,40.8
2024-05-09T08:05:44.385Z,40.8
2024-05-09T08:06:46.530Z,40.9
2024-05-09T08:07:48.467Z,41.1
2024-05-09T08:08:50.200Z,41.2
2024-05-09T08:09:52.209Z,41.3
2024-05-09T08:10:54.340Z,41.3
2024-05-09T08:11:56.624Z,41.4
2024-05-09T08:12:58.730Z,41.4
2024-05-09T08:14:00.695Z,41.4
2024-05-09T08:15:02.438Z,41.4
2024-05-09T08:16:04.454Z,41.4
2024-05-09T08:17:06.915Z,41.4
2024-05-09T08:18:09.463Z,41.5
2024-05-09T08:19:12.584Z,41.5
2024-05-09T08:20:30.712Z,41.5
2024-05-09T08:21:37.367Z,41.5
2024-05-09T08:22:39.440Z,41.4
2024-05-09T08:23:41.199Z,41.6
2024-05-09T08:24:46.212Z,41.6
2024-05-09T08:25:48.438Z,41.6
2024-05-09T08:26:50.214Z,41.7
2024-05-09T08:27:52.086Z,41.7
2024-05-09T08:28:54.530Z,41.8
2024-05-09T08:29:56.318Z,41.9
2024-05-09T08:30:58.615Z,41.9
2024-05-09T08:32:05.977Z,41.9
2024-05-09T08:33:08.539Z,41.9
2024-05-09T08:34:11.335Z,41.8
2024-05-09T08:35:14.014Z,41.8
2024-05-09T08:36:15.734Z,41.7
2024-05-09T08:37:26.187Z,41.9
2024-05-09T08:38:41.916Z,41.8
2024-05-09T08:39:43.711Z,41.9
2024-05-09T08:40:46.140Z,41.9
2024-05-09T08:41:48.364Z,42
2024-05-09T08:42:50.362Z,41.9
2024-05-09T08:43:52.426Z,41.9
2024-05-09T08:44:54.286Z,41.8
2024-05-09T08:45:56.161Z,41.9
2024-05-09T08:46:58.230Z,41.9
2024-05-09T08:48:00.514Z,41.8
2024-05-09T08:49:03.568Z,41.8
2024-05-09T08:50:19.912Z,41.9
2024-05-09T08:51:41.308Z,42
2024-05-09T08:52:43.153Z,41.9
2024-05-09T08:53:44.891Z,42
2024-05-09T08:54:46.793Z,42.1
2024-05-09T08:55:48.906Z,42
2024-05-09T08:56:50.710Z,42
2024-05-09T08:57:52.833Z,42
2024-05-09T08:58:54.927Z,42.1
2024-05-09T08:59:56.665Z,42.2
2024-05-09T09:00:58.602Z,42.1
2024-05-09T09:02:01.103Z,42.1
2024-05-09T09:03:03.537Z,42
2024-05-09T09:04:05.833Z,41.9
2024-05-09T09:05:08.478Z,41.9
2024-05-09T09:06:11.035Z,42.1
2024-05-09T09:07:13.351Z,41.9
2024-05-09T09:08:15.387Z,42
2024-05-09T09:09:17.172Z,42
2024-05-09T09:10:32.108Z,42.1
2024-05-09T09:11:35.922Z,42
2024-05-09T09:12:37.976Z,41.8
2024-05-09T09:13:39.818Z,41.8
2024-05-09T09:14:41.633Z,41.8
2024-05-09T09:15:43.524Z,41.8
2024-05-09T09:16:45.543Z,41.8
2024-05-09T09:17:47.650Z,41.9
2024-05-09T09:18:50.393Z,41.8
2024-05-09T09:19:53.190Z,41.8
2024-05-09T09:20:55.461Z,41.8
2024-05-09T09:21:57.285Z,41.8
2024-05-09T09:22:59.374Z,41.7
2024-05-09T09:24:01.082Z,41.7
2024-05-09T09:25:02.939Z,41.6
2024-05-09T09:26:05.167Z,41.7
2024-05-09T09:27:07.036Z,41.6
2024-05-09T09:28:09.832Z,41.6
2024-05-09T09:29:12.425Z,41.6
2024-05-09T09:30:35.412Z,41.5
2024-05-09T09:31:40.081Z,41.6
2024-05-09T09:32:42.114Z,41.5
2024-05-09T09:33:44.659Z,41.7
2024-05-09T09:34:47.226Z,41.7
2024-05-09T09:35:49.018Z,41.5
2024-05-09T09:36:50.930Z,41.5
2024-05-09T09:37:52.716Z,41.5
2024-05-09T09:38:54.419Z,41.5
2024-05-09T09:39:56.184Z,41.5
2024-05-09T09:40:58.207Z,41.6
2024-05-09T09:42:00.438Z,41.5
2024-05-09T09:43:02.500Z,41.5
2024-05-09T09:44:04.681Z,41.5
2024-05-09T09:45:06.623Z,41.4
2024-05-09T09:46:13.049Z,41.4
2024-05-09T09:47:15.490Z,41.4
2024-05-09T09:48:17.869Z,41.4
2024-05-09T09:49:20.288Z,41.3
2024-05-09T09:50:34.019Z,41.2
2024-05-09T09:51:37.456Z,41.2
2024-05-09T09:52:39.424Z,41.1
2024-05-09T09:53:41.216Z,41.1
2024-05-09T09:54:43.113Z,41
2024-05-09T09:55:45.106Z,41.1
2024-05-09T09:56:46.847Z,41.1
2024-05-09T09:57:48.624Z,41.1
2024-05-09T09:58:50.626Z,41.1
2024-05-09T09:59:52.386Z,41
2024-05-09T10:00:54.867Z,41
2024-05-09T10:01:57.529Z,41
2024-05-09T10:03:00.206Z,41
2024-05-09T10:04:03.696Z,41
2024-05-09T10:05:06.402Z,41
2024-05-09T10:06:08.988Z,40.9
2024-05-09T10:07:11.557Z,40.9
2024-05-09T10:08:13.506Z,40.8
2024-05-09T10:09:15.308Z,40.8
2024-05-09T10:10:30.175Z,40.8
2024-05-09T10:11:49.146Z,40.8
2024-05-09T10:13:02.515Z,40.8
2024-05-09T10:14:04.774Z,40.8
2024-05-09T10:15:06.540Z,40.7
2024-05-09T10:16:08.530Z,40.7
2024-05-09T10:17:11.188Z,40.7
2024-05-09T10:18:13.917Z,40.7
2024-05-09T10:19:17.601Z,40.8
2024-05-09T10:20:28.233Z,40.7
2024-05-09T10:21:34.912Z,40.8
2024-05-09T10:22:36.878Z,40.8
2024-05-09T10:23:38.565Z,40.8
2024-05-09T10:24:40.524Z,40.8
2024-05-09T10:25:42.593Z,40.9
2024-05-09T10:26:44.350Z,40.8
2024-05-09T10:27:46.121Z,40.8
2024-05-09T10:28:47.995Z,40.8
2024-05-09T10:29:49.737Z,40.8
2024-05-09T10:30:51.627Z,40.8
2024-05-09T10:31:53.815Z,40.8
2024-05-09T10:32:56.210Z,40.8
2024-05-09T10:33:59.049Z,40.8
2024-05-09T10:35:02.253Z,40.7
2024-05-09T10:36:04.705Z,40.6
2024-05-09T10:37:06.564Z,40.5
2024-05-09T10:38:08.686Z,40.4
2024-05-09T10:39:10.420Z,40.4
2024-05-09T10:40:25.994Z,40.4
2024-05-09T10:41:33.863Z,40.4
2024-05-09T10:42:35.655Z,40.4
2024-05-09T10:43:37.626Z,40.4
2024-05-09T10:44:39.354Z,40.3
2024-05-09T10:45:41.144Z,40.3
2024-05-09T10:46:43.186Z,40.2
2024-05-09T10:47:45.222Z,40.2
2024-05-09T10:48:48.834Z,40.1
2024-05-09T10:49:52.222Z,40.2
2024-05-09T10:50:54.679Z,40.1
2024-05-09T10:51:56.620Z,40.1
2024-05-09T10:52:58.456Z,40.2
2024-05-09T10:54:00.195Z,40.2
2024-05-09T10:55:05.850Z,40.1
2024-05-09T10:56:08.159Z,40.1
2024-05-09T10:57:09.936Z,40.1
2024-05-09T10:58:11.772Z,40
2024-05-09T10:59:14.172Z,40
2024-05-09T11:00:30.460Z,39.9
2024-05-09T11:01:38.914Z,40
2024-05-09T11:02:41.515Z,39.9
2024-05-09T11:03:44.244Z,39.8
2024-05-09T11:04:47.307Z,39.9
2024-05-09T11:05:49.598Z,39.8
2024-05-09T11:06:51.617Z,39.8
2024-05-09T11:07:53.589Z,39.8
2024-05-09T11:08:55.369Z,39.8
2024-05-09T11:09:57.213Z,39.9
2024-05-09T11:10:59.110Z,40
2024-05-09T11:12:01.656Z,40
2024-05-09T11:13:03.845Z,40
2024-05-09T11:14:06.207Z,40.1
2024-05-09T11:15:07.913Z,40.1
2024-05-09T11:16:09.827Z,40
2024-05-09T11:17:11.863Z,40.1
2024-05-09T11:18:14.099Z,40
2024-05-09T11:19:16.906Z,40.1
2024-05-09T11:20:30.165Z,40
2024-05-09T11:21:37.422Z,40
2024-05-09T11:22:39.400Z,40
2024-05-09T11:23:41.285Z,39.9
2024-05-09T11:24:43.697Z,39.9
2024-05-09T11:25:45.802Z,40
2024-05-09T11:26:47.527Z,40.1
2024-05-09T11:27:49.680Z,40.1
2024-05-09T11:28:51.507Z,40.1
2024-05-09T11:29:53.274Z,40.1
2024-05-09T11:30:55.201Z,40.1
2024-05-09T11:31:57.152Z,40.1
2024-05-09T11:32:59.613Z,40.1
2024-05-09T11:34:02.472Z,40
2024-05-09T11:35:04.393Z,40
2024-05-09T11:36:06.165Z,40
2024-05-09T11:37:08.104Z,40
2024-05-09T11:38:10.070Z,40.1
2024-05-09T11:39:11.797Z,40.1
2024-05-09T11:40:25.991Z,40.1
2024-05-09T11:41:36.593Z,40.1
2024-05-09T11:42:38.369Z,40
2024-05-09T11:43:40.307Z,40
2024-05-09T11:44:42.070Z,40
2024-05-09T11:45:43.884Z,40
2024-05-09T11:46:45.781Z,40
2024-05-09T11:47:47.775Z,39.9
2024-05-09T11:48:50.590Z,40
2024-05-09T11:49:53.093Z,40.1
2024-05-09T11:50:55.816Z,40
2024-05-09T11:51:57.648Z,40
2024-05-09T11:52:59.532Z,40.1
2024-05-09T11:54:01.248Z,40
2024-05-09T11:55:03.151Z,40
2024-05-09T11:56:05.069Z,40
2024-05-09T11:57:06.820Z,40
2024-05-09T11:58:08.948Z,40
2024-05-09T11:59:11.328Z,40
2024-05-09T12:00:29.221Z,39.9
2024-05-09T12:01:39.935Z,39.8
2024-05-09T12:02:42.080Z,39.7
2024-05-09T12:03:44.264Z,39.6
2024-05-09T12:04:47.017Z,39.6
2024-05-09T12:05:49.626Z,39.5
2024-05-09T12:06:52.070Z,39.5
2024-05-09T12:07:54.210Z,39.6
2024-05-09T12:08:55.865Z,39.6
2024-05-09T12:09:57.717Z,39.6
2024-05-09T12:11:00.432Z,39.6
2024-05-09T12:12:03.232Z,39.7
2024-05-09T12:13:07.636Z,39.7
2024-05-09T12:14:10.310Z,39.6
2024-05-09T12:15:12.058Z,39.6
2024-05-09T12:16:14.107Z,39.6
2024-05-09T12:17:16.887Z,39.5
2024-05-09T12:18:19.279Z,39.5
2024-05-09T12:19:21.352Z,39.5
2024-05-09T12:20:36.023Z,39.5
2024-05-09T12:21:42.031Z,39.5
2024-05-09T12:22:44.061Z,39.4
2024-05-09T12:23:45.808Z,39.4
2024-05-09T12:24:47.844Z,39.4
2024-05-09T12:25:49.826Z,39.4
2024-05-09T12:26:51.569Z,39.3
2024-05-09T12:27:53.527Z,39.4
2024-05-09T12:28:55.559Z,39.4
2024-05-09T12:29:57.291Z,39.4
2024-05-09T12:30:59.221Z,39.4
2024-05-09T12:32:01.623Z,39.4
2024-05-09T12:33:03.872Z,39.3
2024-05-09T12:34:07.027Z,39.3
2024-05-09T12:35:09.266Z,39.3
2024-05-09T12:36:11.088Z,39.3
2024-05-09T12:37:13.140Z,39.3
2024-05-09T12:38:15.901Z,39.3
2024-05-09T12:39:17.611Z,39.3
2024-05-09T12:40:35.390Z,39.3
2024-05-09T12:41:41.296Z,39.3
2024-05-09T12:42:43.448Z,39.3
2024-05-09T12:43:45.471Z,39.3
2024-05-09T12:44:47.258Z,39.2
2024-05-09T12:45:49.175Z,39.3
2024-05-09T12:46:51.430Z,39.3
2024-05-09T12:47:53.304Z,39.4
2024-05-09T12:48:55.894Z,39.3
2024-05-09T12:49:58.818Z,39.3
2024-05-09T12:51:00.736Z,39.3
2024-05-09T12:52:02.540Z,39.3
2024-05-09T12:53:05.476Z,39.3
2024-05-09T12:54:07.422Z,39.3
2024-05-09T12:55:09.399Z,39.4
2024-05-09T12:56:11.826Z,39.3
2024-05-09T12:57:13.614Z,39.3
2024-05-09T12:58:15.695Z,39.3
2024-05-09T12:59:19.104Z,39.3
2024-05-09T13:00:33.538Z,39.3
2024-05-09T13:01:36.919Z,39.4
2024-05-09T13:02:39.433Z,39.3
2024-05-09T13:03:42.482Z,39.3
2024-05-09T13:04:45.201Z,39.3
2024-05-09T13:05:47.500Z,39.2
2024-05-09T13:06:50.072Z,39.2
2024-05-09T13:07:52.160Z,39.1
2024-05-09T13:08:53.911Z,39.1
2024-05-09T13:09:55.772Z,39.1
2024-05-09T13:10:57.696Z,39.2
2024-05-09T13:12:00.082Z,39.2
2024-05-09T13:13:02.591Z,39.2
2024-05-09T13:14:04.655Z,39.2
2024-05-09T13:15:06.400Z,39.2
2024-05-09T13:16:08.323Z,39.2
2024-05-09T13:17:10.279Z,39.2
2024-05-09T13:18:12.191Z,39.2
2024-05-09T13:19:14.237Z,39.3
2024-05-09T13:20:31.092Z,39.2
2024-05-09T13:21:38.279Z,39.2
2024-05-09T13:22:40.168Z,39.2
2024-05-09T13:23:41.931Z,39.2
2024-05-09T13:24:43.812Z,39.2
2024-05-09T13:25:45.728Z,39.2
2024-05-09T13:26:47.462Z,39.2
2024-05-09T13:27:49.259Z,39.2
2024-05-09T13:28:51.087Z,39.2
2024-05-09T13:29:52.792Z,39.2
2024-05-09T13:30:54.663Z,39.3
2024-05-09T13:31:56.802Z,39.4
2024-05-09T13:32:58.839Z,39.4
2024-05-09T13:34:01.234Z,39.3
2024-05-09T13:35:03.926Z,39.2
2024-05-09T13:36:05.842Z,39.3
2024-05-09T13:37:07.827Z,39.3
2024-05-09T13:38:10.091Z,39.3
2024-05-09T13:39:11.851Z,39.2
2024-05-09T13:40:14.883Z,39.3
2024-05-09T13:41:36.095Z,39.3
2024-05-09T13:42:38.009Z,39.3
2024-05-09T13:43:39.982Z,39.3
2024-05-09T13:44:41.755Z,39.3
2024-05-09T13:45:43.714Z,39.3
2024-05-09T13:46:45.996Z,39.3
2024-05-09T13:47:48.406Z,39.3
2024-05-09T13:48:51.242Z,39.3
2024-05-09T13:49:53.435Z,39.3
2024-05-09T13:50:55.562Z,39.3
2024-05-09T13:51:57.402Z,39.3
2024-05-09T13:52:59.405Z,39.3
2024-05-09T13:54:01.108Z,39.3
2024-05-09T13:55:02.860Z,39.3
2024-05-09T13:56:04.913Z,39.3
2024-05-09T13:57:06.683Z,39.3
2024-05-09T13:58:09.862Z,39.3
2024-05-09T13:59:12.057Z,39.4
2024-05-09T14:00:39.202Z,39.4
2024-05-09T14:01:51.448Z,39.3
2024-05-09T14:02:54.361Z,39.3
2024-05-09T14:03:57.341Z,39.3
2024-05-09T14:05:00.010Z,39.3
2024-05-09T14:06:02.619Z,39.3
2024-05-09T14:07:04.765Z,39.2
2024-05-09T14:08:06.748Z,39.3
2024-05-09T14:09:08.480Z,39.3
2024-05-09T14:10:25.927Z,39.3
2024-05-09T14:11:34.546Z,39.3
2024-05-09T14:12:36.633Z,39.3
2024-05-09T14:13:38.585Z,39.3
2024-05-09T14:14:40.294Z,39.3
2024-05-09T14:15:42.131Z,39.3
2024-05-09T14:16:44.923Z,39.3
2024-05-09T14:17:47.544Z,39.3